Time;durP1;ratioP1;P1;durP2;ratioP2;P2;SDS_P1;SDS_P2;PMS_P1;PMS_P2;Temp;Humidity;BMP_temperature;BMP_pressure;BME280_temperature;BME280_humidity;BME280_pressure;Samples;Min_cycle;Max_cycle;Signal;HPM_P1;HPM_P2
2022/12/20 07:37:13;;;;;;;0.23;0.23;;;10.80;99.90;10.50;100851.00;;;;4989230;28;20574;-62
2022/12/20 07:39:58;;;;;;;0.30;0.30;;;10.80;99.90;10.50;100851.00;;;;5004812;28;20235;-63
2022/12/20 07:42:59;;;;;;;0.60;0.60;;;10.70;99.90;10.40;100833.00;;;;4972787;28;20287;-63
2022/12/20 07:46:02;;;;;;;0.67;0.67;;;10.70;99.90;10.20;100803.00;;;;4995914;28;20284;-63
2022/12/20 07:49:05;;;;;;;0.53;0.53;;;10.70;99.90;10.40;100764.00;;;;4996150;28;20248;-63
2022/12/20 07:52:13;;;;;;;0.30;0.30;;;10.60;99.90;10.30;100852.00;;;;4996101;28;20196;-62
2022/12/20 07:55:23;;;;;;;0.40;0.40;;;10.70;99.90;10.30;100790.00;;;;4993901;28;20246;-62
2022/12/20 07:58:52;;;;;;;0.77;0.77;;;10.70;99.90;10.30;100766.00;;;;4977304;28;20276;-62
2022/12/20 08:01:54;;;;;;;3.20;1.50;;;10.60;99.90;10.10;100847.00;;;;4996349;28;20199;-63
2022/12/20 08:04:55;;;;;;;1.47;1.37;;;10.60;99.90;10.20;100805.00;;;;4993577;28;20199;-63
2022/12/20 08:08:08;;;;;;;0.80;0.80;;;10.60;99.90;10.10;100864.00;;;;4995832;28;20204;-62
2022/12/20 08:11:17;;;;;;;0.50;0.50;;;10.50;99.90;10.10;100849.00;;;;5008334;28;20536;-62
2022/12/20 08:14:51;;;;;;;2.07;0.97;;;10.50;99.90;10.00;100859.00;;;;4966127;28;20219;-62
2022/12/20 08:17:35;;;;;;;3.03;1.13;;;10.50;99.90;10.10;100810.00;;;;4965922;28;20204;-62
2022/12/20 08:20:42;;;;;;;1.53;1.43;;;10.50;99.90;10.10;100851.00;;;;4995479;28;20231;-62
2022/12/20 08:23:28;;;;;;;0.80;0.80;;;10.50;99.90;10.10;100863.00;;;;4995826;28;20199;-62
2022/12/20 08:26:16;;;;;;;1.87;1.50;;;10.50;99.90;10.10;100845.00;;;;5002931;28;20324;-62
2022/12/20 08:28:46;;;;;;;2.77;2.63;;;10.50;99.90;10.10;100864.00;;;;4974550;28;20219;-62
2022/12/20 08:31:42;;;;;;;1.10;1.10;;;10.50;99.90;10.20;100867.00;;;;4995503;28;20199;-62
2022/12/20 08:34:35;;;;;;;0.43;0.43;;;10.50;99.90;10.10;100858.00;;;;4970558;28;20213;-62
2022/12/20 08:37:24;;;;;;;1.13;1.13;;;10.50;99.90;10.40;100830.00;;;;4992940;28;20207;-63
2022/12/20 08:40:13;;;;;;;1.13;1.07;;;10.60;99.90;10.40;100837.00;;;;4982539;28;20204;-62
2022/12/20 08:42:39;;;;;;;0.97;0.60;;;10.60;99.90;10.20;100770.00;;;;4962787;28;20208;-62
2022/12/20 08:45:28;;;;;;;1.40;1.30;;;10.60;99.90;10.20;100845.00;;;;4995347;28;20200;-62
2022/12/20 08:48:11;;;;;;;1.20;1.10;;;10.60;99.90;10.10;100844.00;;;;4996460;28;20204;-62
2022/12/20 08:50:46;;;;;;;1.40;1.30;;;10.50;99.90;10.20;100774.00;;;;4995330;28;20643;-62
2022/12/20 08:53:31;;;;;;;1.03;0.93;;;10.60;99.90;10.10;100781.00;;;;5024170;28;20218;-62
2022/12/20 08:56:31;;;;;;;2.67;0.57;;;10.50;99.90;10.20;100845.00;;;;4983340;28;20193;-62
2022/12/20 08:59:15;;;;;;;1.00;1.00;;;10.50;99.90;10.10;100848.00;;;;4994398;28;20266;-62
2022/12/20 09:01:52;;;;;;;0.50;0.50;;;10.50;99.90;10.20;100861.00;;;;4977682;28;20600;-68
2022/12/20 09:04:18;;;;;;;2.23;2.13;;;10.50;99.90;10.20;100856.00;;;;4996208;28;20558;-63
2022/12/20 09:07:01;;;;;;;0.53;0.53;;;10.50;99.90;10.10;100843.00;;;;4994876;28;20205;-63
2022/12/20 09:09:30;;;;;;;0.63;0.63;;;10.50;99.90;10.20;100847.00;;;;4995473;28;20191;-63
2022/12/20 09:12:16;;;;;;;1.33;1.23;;;10.50;99.90;10.30;100846.00;;;;5018555;28;20221;-63
2022/12/20 09:14:52;;;;;;;0.90;0.90;;;10.50;99.90;10.30;100769.00;;;;4994812;28;20221;-62
2022/12/20 09:17:37;;;;;;;1.87;1.27;;;10.60;99.90;10.30;100862.00;;;;5006171;28;20236;-63
2022/12/20 09:20:04;;;;;;;1.07;0.97;;;10.60;99.90;10.40;100845.00;;;;4985597;28;20211;-63
2022/12/20 09:22:35;;;;;;;0.57;0.57;;;10.70;99.90;10.40;100849.00;;;;4994084;28;20200;-63
2022/12/20 09:25:19;;;;;;;0.57;0.57;;;10.70;99.90;10.60;100843.00;;;;4994635;28;20204;-63
2022/12/20 09:27:47;;;;;;;0.93;0.93;;;10.80;99.90;10.40;100843.00;;;;5008319;28;20283;-63
2022/12/20 09:30:13;;;;;;;0.50;0.50;;;10.80;99.90;10.50;100835.00;;;;4994298;28;20192;-63
2022/12/20 09:32:51;;;;;;;0.97;0.90;;;10.80;99.90;10.40;100854.00;;;;4976255;28;20214;-63
2022/12/20 09:35:17;;;;;;;1.53;1.43;;;10.80;99.90;10.50;100848.00;;;;4976749;28;20219;-63
2022/12/20 09:37:52;;;;;;;1.10;1.10;;;10.80;99.90;10.60;100849.00;;;;5022679;28;20232;-63
2022/12/20 09:40:31;;;;;;;2.77;2.03;;;10.80;99.90;10.50;100853.00;;;;4994195;28;20201;-63
2022/12/20 09:42:58;;;;;;;0.67;0.67;;;10.80;99.90;10.40;100845.00;;;;4992766;28;20196;-63
2022/12/20 09:45:27;;;;;;;1.20;1.10;;;10.80;99.90;10.50;100855.00;;;;4993837;28;20221;-64
2022/12/20 09:47:56;;;;;;;3.17;0.50;;;10.80;99.90;10.40;100858.00;;;;4993930;28;20276;-63
2022/12/20 09:50:49;;;;;;;0.87;0.87;;;10.80;99.90;10.40;100856.00;;;;4994752;28;20656;-63
2022/12/20 09:53:52;;;;;;;1.23;0.63;;;10.80;99.90;10.60;100850.00;;;;4992900;28;20227;-63
2022/12/20 09:56:29;;;;;;;2.77;2.57;;;10.90;99.90;10.40;100856.00;;;;4992808;28;20284;-62
2022/12/20 09:59:25;;;;;;;1.00;1.00;;;10.80;99.90;10.40;100859.00;;;;4981848;28;20198;-63
2022/12/20 10:01:51;;;;;;;6.80;3.10;;;10.80;99.90;10.40;100853.00;;;;4994486;28;20232;-63
2022/12/20 10:04:24;;;;;;;5.30;1.23;;;10.80;99.90;10.40;100853.00;;;;4987620;28;20193;-63
2022/12/20 10:07:20;;;;;;;0.60;0.60;;;10.80;99.90;10.40;100853.00;;;;4993523;28;20636;-63
2022/12/20 10:10:09;;;;;;;0.77;0.77;;;10.70;99.90;10.40;100795.00;;;;4966003;28;20193;-62
2022/12/20 10:13:50;;;;;;;5.80;1.10;;;10.70;99.90;10.50;100855.00;;;;4994260;28;20219;-63
2022/12/20 10:16:39;;;;;;;1.73;1.63;;;10.80;99.90;10.60;100858.00;;;;4991435;28;20200;-65
2022/12/20 10:19:20;;;;;;;0.43;0.43;;;10.80;99.90;10.70;100847.00;;;;4993812;28;20215;-65
2022/12/20 10:33:46;;;;;;;0.30;0.30;;;10.60;99.90;10.20;100854.00;;;;5070318;28;20530;-69
2022/12/20 10:36:21;;;;;;;0.30;0.30;;;10.60;99.90;10.30;100852.00;;;;5050430;28;20196;-68
2022/12/20 10:39:39;;;;;;;2.93;1.17;;;10.60;99.90;10.40;100860.00;;;;5044117;28;20192;-69
2022/12/20 10:42:31;;;;;;;1.20;1.10;;;10.70;99.90;10.50;100854.00;;;;5050543;28;20266;-68
2022/12/20 10:45:19;;;;;;;0.60;0.60;;;10.70;99.90;10.60;100836.00;;;;5064453;28;20177;-68
2022/12/20 10:47:57;;;;;;;0.63;0.63;;;10.80;99.90;10.50;100836.00;;;;5049719;28;20543;-68
2022/12/20 10:50:33;;;;;;;1.53;0.97;;;10.80;99.90;10.30;100854.00;;;;5053268;28;20196;-68
2022/12/20 10:53:24;;;;;;;5.93;1.47;;;10.70;99.90;10.50;100850.00;;;;5049814;28;20691;-67
2022/12/20 10:56:29;;;;;;;0.30;0.30;;;10.80;99.90;10.50;100835.00;;;;5048537;28;20181;-67
2022/12/20 10:59:27;;;;;;;1.23;1.13;;;10.70;99.90;10.40;100785.00;;;;5048983;28;20291;-68
2022/12/20 11:01:59;;;;;;;0.40;0.40;;;10.70;99.90;10.40;100846.00;;;;5048509;28;20190;-67
2022/12/20 11:04:35;;;;;;;1.07;0.77;;;10.70;99.90;10.50;100839.00;;;;5065114;28;20539;-74
2022/12/20 11:07:26;;;;;;;0.50;0.50;;;10.70;99.90;10.50;100832.00;;;;5047839;28;20517;-66
2022/12/20 11:10:15;;;;;;;0.83;0.67;;;10.80;99.90;10.40;100836.00;;;;5048280;28;20193;-66
2022/12/20 11:13:00;;;;;;;1.07;1.00;;;10.80;99.90;10.30;100832.00;;;;5049009;28;20216;-67
2022/12/20 11:15:32;;;;;;;0.60;0.60;;;10.80;99.90;10.60;100836.00;;;;5042209;28;20552;-67
2022/12/20 11:18:06;;;;;;;1.97;1.47;;;10.80;99.90;10.50;100827.00;;;;5048589;28;20190;-68
2022/12/20 11:20:49;;;;;;;0.67;0.60;;;10.80;99.90;10.70;100825.00;;;;5049187;28;20257;-67
2022/12/20 11:23:41;;;;;;;0.63;0.40;;;10.90;99.90;10.60;100821.00;;;;5052924;28;20233;-67
2022/12/20 11:34:17;;;;;;;1.60;1.50;;;10.80;99.90;10.50;100761.00;;;;5022209;28;20286;-67
2022/12/20 11:37:25;;;;;;;0.90;0.90;;;10.90;99.90;10.50;100809.00;;;;5012430;28;20184;-67
2022/12/20 11:39:56;;;;;;;0.63;0.63;;;10.90;99.90;10.70;100806.00;;;;5056211;28;20179;-68
2022/12/20 11:42:41;;;;;;;0.30;0.30;;;10.90;99.90;10.60;100814.00;;;;5046564;28;20191;-68
2022/12/20 11:45:56;;;;;;;0.70;0.70;;;11.00;99.90;10.60;100810.00;;;;5049292;28;20265;-67
2022/12/20 11:52:35;;;;;;;1.43;0.90;;;11.00;99.90;10.70;100803.00;;;;5031836;28;20253;-67
2022/12/20 11:55:46;;;;;;;0.97;0.80;;;10.90;99.90;10.80;100797.00;;;;5048510;28;20261;-67
2022/12/20 11:58:30;;;;;;;0.43;0.43;;;10.90;99.90;10.60;100797.00;;;;5034722;28;20190;-67
2022/12/20 12:01:19;;;;;;;1.13;1.03;;;10.90;99.90;10.70;100778.00;;;;5050188;28;20191;-68
2022/12/20 12:04:21;;;;;;;3.70;1.57;;;10.90;99.90;10.80;100796.00;;;;5014498;28;20565;-67
2022/12/20 12:07:24;;;;;;;4.23;0.77;;;11.00;99.90;10.90;100751.00;;;;5025473;28;20201;-67
2022/12/20 12:09:53;;;;;;;3.40;0.77;;;11.00;99.90;10.90;100806.00;;;;5029383;28;20198;-67
2022/12/20 12:12:42;;;;;;;0.50;0.50;;;11.00;99.90;10.70;100811.00;;;;5034210;28;20290;-68
2022/12/20 12:15:37;;;;;;;3.13;2.93;;;11.00;99.90;10.50;100801.00;;;;5028348;28;20183;-67
2022/12/20 12:18:31;;;;;;;0.60;0.60;;;10.90;99.90;10.70;100794.00;;;;5038031;28;20186;-67
2022/12/20 12:21:38;;;;;;;0.97;0.70;;;10.90;99.90;10.60;100791.00;;;;5049627;28;20216;-67
2022/12/20 12:25:12;;;;;;;0.77;0.60;;;10.80;99.90;10.70;100790.00;;;;5040491;28;20204;-67
2022/12/20 12:28:11;;;;;;;0.30;0.30;;;10.90;99.90;10.60;100785.00;;;;5033180;28;20210;-67
2022/12/20 12:31:10;;;;;;;1.80;1.00;;;10.90;99.90;10.50;100780.00;;;;5032285;28;20531;-67
2022/12/20 12:34:11;;;;;;;0.40;0.40;;;10.80;99.90;10.70;100785.00;;;;5027231;28;20287;-66
2022/12/20 12:37:51;;;;;;;0.53;0.53;;;10.90;99.90;10.40;100783.00;;;;5034088;28;20191;-67
2022/12/20 12:40:49;;;;;;;0.43;0.43;;;10.80;99.90;10.50;100789.00;;;;4992856;28;20207;-66
2022/12/20 12:43:39;;;;;;;0.40;0.40;;;10.80;99.90;10.40;100788.00;;;;5007581;28;20235;-66
2022/12/20 12:46:35;;;;;;;1.07;0.97;;;10.80;99.90;10.50;100780.00;;;;4990014;28;20655;-67
2022/12/20 12:49:36;;;;;;;0.80;0.80;;;10.80;99.90;10.20;100781.00;;;;4976309;28;20208;-66
2022/12/20 12:52:04;;;;;;;1.47;0.90;;;10.80;99.90;10.50;100780.00;;;;4983683;28;20266;-66
2022/12/20 12:54:52;;;;;;;0.30;0.30;;;10.80;99.90;10.40;100775.00;;;;5034465;28;20191;-66
2022/12/20 12:57:18;;;;;;;0.53;0.43;;;10.70;99.90;10.70;100784.00;;;;5033508;28;20187;-67
2022/12/20 12:59:50;;;;;;;0.43;0.43;;;10.80;99.90;10.60;100781.00;;;;5033254;28;20193;-67
2022/12/20 13:02:16;;;;;;;0.40;0.40;;;10.80;99.90;10.60;100781.00;;;;5038839;28;20197;-67
2022/12/20 13:05:23;;;;;;;0.50;0.50;;;10.80;99.90;10.40;100793.00;;;;5047172;28;20241;-67
2022/12/20 13:07:49;;;;;;;0.73;0.73;;;10.70;99.90;10.40;100785.00;;;;5034357;28;20192;-67
2022/12/20 13:10:20;;;;;;;0.47;0.47;;;10.70;99.90;10.30;100731.00;;;;5033806;28;20196;-67
2022/12/20 13:12:58;;;;;;;0.20;0.20;;;10.70;99.90;10.30;100781.00;;;;5032544;28;20579;-67
2022/12/20 13:15:44;;;;;;;0.77;0.77;;;10.70;99.90;10.20;100779.00;;;;5050115;28;20716;-67
2022/12/20 13:18:37;;;;;;;0.50;0.50;;;10.60;99.90;10.40;100782.00;;;;5030920;28;20188;-67
2022/12/20 13:21:41;;;;;;;0.83;0.83;;;10.60;99.90;10.20;100773.00;;;;5026735;28;20184;-67
2022/12/20 13:24:47;;;;;;;0.37;0.37;;;10.60;99.90;10.20;100776.00;;;;5019354;28;20583;-67
2022/12/20 13:28:16;;;;;;;0.40;0.40;;;10.60;99.90;10.30;100746.00;;;;5032072;28;20217;-67
2022/12/20 13:31:08;;;;;;;0.30;0.30;;;10.60;99.90;10.50;100774.00;;;;5029923;28;20303;-67
2022/12/20 13:34:25;;;;;;;0.20;0.20;;;10.70;99.90;10.50;100774.00;;;;5033956;28;20187;-67
2022/12/20 13:37:01;;;;;;;0.43;0.43;;;10.70;99.90;10.30;100775.00;;;;5026235;28;20273;-66
2022/12/20 13:39:57;;;;;;;0.50;0.50;;;10.60;99.90;10.30;100716.00;;;;5031114;28;20630;-66
2022/12/20 13:42:51;;;;;;;0.40;0.40;;;10.70;99.90;10.30;100765.00;;;;5032404;28;20662;-67
2022/12/20 13:45:31;;;;;;;0.30;0.30;;;10.60;99.90;10.50;100759.00;;;;5028226;28;20596;-66
2022/12/20 13:51:22;;;;;;;1.33;0.70;;;10.70;99.90;10.60;100761.00;;;;5045501;28;20190;-66
2022/12/20 13:54:03;;;;;;;0.50;0.50;;;10.70;99.90;10.30;100711.00;;;;5035399;28;20191;-63
2022/12/20 13:57:01;;;;;;;0.37;0.37;;;10.60;99.90;10.40;100702.00;;;;5036283;28;20191;-65
2022/12/20 14:00:13;;;;;;;2.33;0.93;;;10.70;99.90;10.30;100742.00;;;;5033200;28;20197;-65
2022/12/20 14:03:26;;;;;;;0.83;0.83;;;10.60;99.90;10.50;100749.00;;;;5047120;28;20697;-65
2022/12/20 14:06:44;;;;;;;0.30;0.30;;;10.70;99.90;10.40;100743.00;;;;5033407;28;20187;-66
2022/12/20 14:09:48;;;;;;;0.40;0.40;;;10.70;99.90;10.40;100752.00;;;;5030333;28;20203;-65
2022/12/20 14:13:00;;;;;;;0.20;0.20;;;10.70;99.90;10.40;100751.00;;;;5015335;28;20214;-67
2022/12/20 14:16:13;;;;;;;0.30;0.30;;;10.60;99.90;10.70;100742.00;;;;5023551;28;20185;-66
2022/12/20 14:19:08;;;;;;;1.47;0.90;;;10.70;99.90;10.60;100747.00;;;;5049965;28;20188;-65
2022/12/20 14:21:57;;;;;;;0.60;0.60;;;10.70;99.90;10.40;100750.00;;;;5020363;28;20197;-65
2022/12/20 14:24:45;;;;;;;0.50;0.50;;;10.60;99.90;10.60;100751.00;;;;5031033;28;20228;-65
2022/12/20 14:27:39;;;;;;;0.40;0.40;;;10.70;99.90;10.60;100753.00;;;;5042145;28;20916;-65
2022/12/20 14:30:44;;;;;;;0.40;0.40;;;10.60;99.90;10.70;100751.00;;;;4987754;28;20278;-65
2022/12/20 14:33:30;;;;;;;0.40;0.40;;;10.80;99.90;10.50;100743.00;;;;5030012;28;20259;-65
2022/12/20 14:35:58;;;;;;;1.13;1.07;;;10.70;99.90;10.40;100731.00;;;;5032619;28;20673;-64
2022/12/20 14:38:38;;;;;;;0.73;0.73;;;10.60;99.90;10.50;100742.00;;;;5034359;28;20721;-67
2022/12/20 14:41:44;;;;;;;1.60;1.20;;;10.70;99.90;10.30;100741.00;;;;5008200;28;20275;-68
2022/12/20 14:44:30;;;;;;;0.33;0.33;;;10.70;99.90;10.40;100752.00;;;;5031633;28;20185;-69
2022/12/20 14:47:55;;;;;;;0.50;0.50;;;10.60;99.90;10.50;100749.00;;;;5027387;28;20547;-66
2022/12/20 14:50:37;;;;;;;0.30;0.30;;;10.70;99.90;10.40;100747.00;;;;5011737;28;20189;-67
2022/12/20 14:53:29;;;;;;;0.73;0.73;;;10.60;99.90;10.20;100681.00;;;;5027841;28;20529;-66
2022/12/20 14:56:32;;;;;;;0.83;0.83;;;10.60;99.90;10.30;100754.00;;;;5032901;28;20200;-66
2022/12/20 14:59:17;;;;;;;0.30;0.30;;;10.60;99.90;10.30;100759.00;;;;5048247;28;20538;-66
2022/12/20 15:01:57;;;;;;;0.30;0.30;;;10.60;99.90;10.30;100740.00;;;;5047790;28;20216;-66
2022/12/20 15:05:16;;;;;;;1.13;0.80;;;10.60;99.90;10.30;100757.00;;;;5034343;28;20195;-66
2022/12/20 15:07:45;;;;;;;0.43;0.43;;;10.60;99.90;10.60;100754.00;;;;5023377;28;20305;-66
2022/12/20 15:14:39;;;;;;;3.00;1.03;;;10.60;99.90;10.70;100756.00;;;;5030697;28;20201;-66
2022/12/20 15:17:14;;;;;;;2.40;0.90;;;10.60;99.90;10.40;100755.00;;;;5029949;28;20273;-66
2022/12/20 15:19:56;;;;;;;0.30;0.30;;;10.60;99.90;10.40;100762.00;;;;5014569;28;20198;-66
2022/12/20 15:22:29;;;;;;;1.00;1.00;;;10.60;99.90;10.50;100762.00;;;;5036384;28;20201;-66
2022/12/20 15:25:04;;;;;;;0.97;0.90;;;10.60;99.90;10.40;100762.00;;;;5036363;28;20216;-66
2022/12/20 15:27:43;;;;;;;0.30;0.30;;;10.60;99.90;10.50;100765.00;;;;5050364;28;20233;-66
2022/12/20 15:30:21;;;;;;;0.50;0.43;;;10.70;99.90;10.50;100762.00;;;;5038946;28;20188;-66
2022/12/20 15:33:18;;;;;;;0.30;0.30;;;10.60;99.90;10.70;100761.00;;;;5034885;28;20211;-66
2022/12/20 15:36:08;;;;;;;0.73;0.73;;;10.70;99.90;10.30;100768.00;;;;5035326;28;20190;-66
2022/12/20 15:38:46;;;;;;;0.47;0.47;;;10.60;99.90;10.40;100760.00;;;;5034699;28;20195;-66
2022/12/20 15:41:31;;;;;;;0.30;0.30;;;10.60;99.90;10.40;100754.00;;;;5033418;28;20207;-66
2022/12/20 15:44:09;;;;;;;0.77;0.77;;;10.60;99.90;10.80;100758.00;;;;5034676;28;20553;-66
2022/12/20 15:46:49;;;;;;;0.30;0.30;;;10.70;99.90;10.80;100751.00;;;;5051174;28;20179;-66
2022/12/20 15:49:26;;;;;;;0.30;0.30;;;10.70;99.90;11.00;100752.00;;;;5034868;28;20624;-66
2022/12/20 15:52:25;;;;;;;0.53;0.53;;;10.90;99.90;10.70;100701.00;;;;5034359;28;20286;-66
2022/12/20 15:55:14;;;;;;;0.80;0.80;;;10.80;99.90;10.70;100681.00;;;;5034776;28;20279;-66
2022/12/20 15:57:43;;;;;;;0.97;0.97;;;10.80;99.90;10.70;100723.00;;;;5032777;28;20191;-68
2022/12/20 16:00:41;;;;;;;0.40;0.40;;;10.80;99.90;10.70;100684.00;;;;5042112;28;20201;-67
2022/12/20 16:03:33;;;;;;;0.87;0.73;;;10.70;99.90;10.60;100740.00;;;;5043763;28;20336;-67
2022/12/20 16:06:45;;;;;;;0.40;0.40;;;10.70;99.90;10.60;100751.00;;;;5049523;28;20528;-67
2022/12/20 16:09:42;;;;;;;0.40;0.40;;;10.70;99.90;10.50;100729.00;;;;5033967;28;20183;-67
2022/12/20 16:12:34;;;;;;;0.60;0.60;;;10.70;99.90;10.60;100716.00;;;;5031394;28;20315;-67
2022/12/20 16:15:03;;;;;;;0.40;0.40;;;10.70;99.90;10.50;100718.00;;;;5040349;28;20276;-67
2022/12/20 16:18:06;;;;;;;0.40;0.40;;;10.60;99.90;10.40;100739.00;;;;5042233;28;20188;-67
2022/12/20 16:21:04;;;;;;;0.40;0.40;;;10.60;99.90;10.60;100729.00;;;;5041017;28;20206;-67
2022/12/20 16:24:01;;;;;;;26.53;2.27;;;10.60;99.90;10.60;100678.00;;;;5057657;28;20209;-68
2022/12/20 16:26:36;;;;;;;0.40;0.40;;;10.60;99.90;10.40;100726.00;;;;5042606;28;20203;-67
2022/12/20 16:29:27;;;;;;;1.67;1.57;;;10.60;99.90;10.40;100732.00;;;;5043345;28;20184;-67
2022/12/20 16:32:21;;;;;;;0.60;0.60;;;10.60;99.90;10.50;100741.00;;;;5056926;28;20215;-67
2022/12/20 16:36:09;;;;;;;0.50;0.50;;;10.60;99.90;10.50;100738.00;;;;5043114;28;20267;-67
2022/12/20 16:38:58;;;;;;;1.23;1.23;;;10.60;99.90;10.40;100725.00;;;;5012559;28;20250;-67
2022/12/20 16:41:50;;;;;;;0.50;0.50;;;10.50;99.90;10.80;100739.00;;;;5006922;28;20297;-67
2022/12/20 16:44:43;;;;;;;2.83;1.80;;;10.70;99.90;10.50;100681.00;;;;5011899;28;20209;-67
2022/12/20 16:47:29;;;;;;;0.60;0.60;;;10.70;99.90;10.50;100737.00;;;;5035436;28;20214;-66
2022/12/20 16:50:00;;;;;;;0.30;0.30;;;10.60;99.90;10.50;100689.00;;;;5041064;28;20187;-67
2022/12/20 16:52:42;;;;;;;0.30;0.30;;;10.70;99.90;10.60;100742.00;;;;5041037;28;20245;-67
2022/12/20 16:55:47;;;;;;;0.60;0.60;;;10.70;99.90;11.00;100743.00;;;;5040207;28;20225;-71
2022/12/20 16:58:30;;;;;;;0.40;0.40;;;10.80;99.90;10.80;100741.00;;;;5042096;28;20195;-67
2022/12/20 17:01:35;;;;;;;0.40;0.40;;;10.80;99.90;11.20;100749.00;;;;5042556;28;20278;-64
2022/12/20 17:04:20;;;;;;;0.50;0.50;;;10.90;99.90;11.10;100706.00;;;;5058296;28;20184;-65
2022/12/20 17:06:55;;;;;;;0.40;0.40;;;10.90;99.90;10.70;100744.00;;;;5036499;28;20660;-64
2022/12/20 17:09:50;;;;;;;0.60;0.60;;;10.80;99.90;11.00;100700.00;;;;5041135;28;20194;-65
2022/12/20 17:12:25;;;;;;;0.93;0.93;;;11.00;99.90;10.90;100749.00;;;;5041094;28;20675;-64
2022/12/20 17:15:03;;;;;;;0.93;0.93;;;10.80;99.90;11.00;100740.00;;;;5040433;28;20196;-65
2022/12/20 17:18:00;;;;;;;0.67;0.60;;;10.90;99.90;10.80;100737.00;;;;5041771;28;20233;-65
2022/12/20 17:21:02;;;;;;;0.40;0.40;;;10.80;99.90;11.20;100743.00;;;;5042971;28;20219;-65
2022/12/20 17:23:49;;;;;;;1.27;1.27;;;10.90;99.90;11.50;100759.00;;;;5041856;28;20597;-64
2022/12/20 17:26:29;;;;;;;0.77;0.77;;;10.90;99.90;11.00;100749.00;;;;5037774;28;20234;-64
2022/12/20 17:29:20;;;;;;;0.83;0.83;;;10.90;99.90;10.60;100750.00;;;;5041888;28;20194;-65
2022/12/20 17:32:28;;;;;;;0.70;0.70;;;10.70;99.90;10.50;100748.00;;;;5041973;28;20260;-65
2022/12/20 17:35:03;;;;;;;0.40;0.40;;;10.70;99.90;10.80;100755.00;;;;5039436;28;20220;-65
2022/12/20 17:37:59;;;;;;;0.40;0.40;;;10.80;99.90;10.60;100771.00;;;;5040595;28;20202;-64
2022/12/20 17:40:35;;;;;;;0.40;0.40;;;10.70;99.90;10.60;100768.00;;;;5054191;28;20285;-64
2022/12/20 17:43:50;;;;;;;1.47;1.37;;;10.70;99.90;10.50;100764.00;;;;5042397;28;20191;-65
2022/12/20 17:46:22;;;;;;;0.47;0.47;;;10.70;99.90;10.70;100768.00;;;;5031707;28;20526;-64
2022/12/20 17:48:56;;;;;;;0.60;0.60;;;10.70;99.90;11.20;100768.00;;;;5042173;28;20250;-65
2022/12/20 17:51:44;;;;;;;0.90;0.90;;;10.90;99.90;10.70;100763.00;;;;5056867;28;20242;-65
2022/12/20 17:54:19;;;;;;;1.07;1.07;;;10.80;99.90;10.70;100725.00;;;;5042641;28;20206;-65
2022/12/20 17:56:46;;;;;;;1.30;1.30;;;10.70;99.90;10.80;100765.00;;;;5037979;28;20286;-65
2022/12/20 17:59:13;;;;;;;0.80;0.80;;;10.80;99.90;10.80;100743.00;;;;5057693;28;20193;-65
2022/12/20 18:02:17;;;;;;;0.80;0.80;;;10.80;99.90;11.20;100769.00;;;;5041488;28;20197;-65
2022/12/20 18:04:55;;;;;;;0.60;0.60;;;11.00;99.90;11.30;100765.00;;;;5033185;28;20282;-65
2022/12/20 18:07:33;;;;;;;1.73;1.43;;;11.10;99.90;11.50;100756.00;;;;5036360;28;20265;-65
2022/12/20 18:09:59;;;;;;;0.73;0.73;;;11.20;99.90;11.10;100750.00;;;;5043577;28;20197;-65
2022/12/20 18:12:28;;;;;;;0.63;0.63;;;11.10;99.90;10.90;100733.00;;;;5041070;28;20209;-65
2022/12/20 18:15:07;;;;;;;1.23;1.23;;;10.90;99.90;11.20;100755.00;;;;5039644;28;20244;-64
2022/12/20 18:17:41;;;;;;;0.70;0.70;;;11.00;99.90;11.60;100767.00;;;;5038546;28;20249;-65
2022/12/20 18:20:32;;;;;;;0.70;0.70;;;11.10;99.90;11.70;100752.00;;;;5042103;28;20181;-65
2022/12/20 18:23:30;;;;;;;0.70;0.70;;;11.30;99.90;11.60;100759.00;;;;5056702;28;20191;-64
2022/12/20 18:26:19;;;;;;;0.80;0.80;;;11.30;99.90;11.50;100764.00;;;;5032570;28;20183;-65
2022/12/20 18:28:57;;;;;;;8.63;8.10;;;11.20;99.90;11.00;100761.00;;;;5039917;28;20178;-64
2022/12/20 18:31:41;;;;;;;0.70;0.70;;;11.00;99.90;11.20;100767.00;;;;5041384;28;20241;-64
2022/12/20 18:34:10;;;;;;;1.10;1.10;;;10.90;99.90;11.20;100767.00;;;;5040431;28;20236;-64
2022/12/20 18:37:14;;;;;;;0.90;0.90;;;11.10;99.90;11.00;100765.00;;;;5039821;28;20562;-65
2022/12/20 18:39:57;;;;;;;0.70;0.70;;;11.00;99.90;11.10;100764.00;;;;5041283;28;20194;-64
2022/12/20 18:42:44;;;;;;;1.57;1.47;;;10.90;99.90;11.20;100745.00;;;;5041090;28;20206;-65
2022/12/20 18:45:13;;;;;;;1.27;1.17;;;11.00;99.90;11.30;100755.00;;;;5039331;28;20676;-65
2022/12/20 18:47:39;;;;;;;0.80;0.80;;;11.10;99.90;10.90;100755.00;;;;5038998;28;20269;-67
2022/12/20 18:50:23;;;;;;;0.70;0.70;;;10.90;99.90;11.30;100729.00;;;;5038589;28;20727;-65
2022/12/20 18:52:49;;;;;;;0.70;0.70;;;11.00;99.90;11.10;100766.00;;;;5039597;28;20214;-64
2022/12/20 18:55:21;;;;;;;1.10;1.10;;;11.00;99.90;11.00;100766.00;;;;5042967;28;20601;-64
2022/12/20 18:58:30;;;;;;;0.80;0.80;;;10.90;99.90;11.10;100771.00;;;;5043450;28;20191;-64
2022/12/20 19:01:18;;;;;;;1.30;1.30;;;10.90;99.90;11.10;100775.00;;;;5043607;28;20171;-64
2022/12/20 19:04:23;;;;;;;1.00;1.00;;;10.90;99.90;11.00;100765.00;;;;5044856;28;20199;-65
2022/12/20 19:07:41;;;;;;;0.90;0.90;;;10.90;99.90;10.70;100754.00;;;;5047838;28;20680;-64
2022/12/20 19:10:18;;;;;;;0.70;0.70;;;10.80;99.90;11.00;100765.00;;;;5060491;28;20196;-65
2022/12/20 19:13:07;;;;;;;0.70;0.70;;;10.80;99.90;10.80;100766.00;;;;5044391;28;20254;-64
2022/12/20 19:16:14;;;;;;;1.00;1.00;;;10.70;99.90;11.00;100765.00;;;;5060124;28;20194;-64
2022/12/20 19:19:01;;;;;;;1.43;1.33;;;10.80;99.90;10.50;100773.00;;;;5035499;28;20202;-64
2022/12/20 19:22:02;;;;;;;0.70;0.70;;;10.70;99.90;10.80;100692.00;;;;5044542;28;20184;-64
2022/12/20 19:25:11;;;;;;;0.87;0.87;;;10.70;99.90;10.50;100756.00;;;;5058758;28;20188;-64
2022/12/20 19:28:03;;;;;;;0.60;0.60;;;10.60;99.90;10.60;100761.00;;;;5058691;28;20195;-64
2022/12/20 19:31:11;;;;;;;0.97;0.97;;;10.60;99.90;10.50;100768.00;;;;5042919;28;20228;-64
2022/12/20 19:33:43;;;;;;;0.60;0.60;;;10.60;99.90;10.40;100761.00;;;;5048856;28;20227;-64
2022/12/20 19:36:57;;;;;;;0.80;0.80;;;10.50;99.90;10.70;100768.00;;;;5044116;28;20226;-64
2022/12/20 19:39:29;;;;;;;0.60;0.60;;;10.60;99.90;11.10;100765.00;;;;5044723;28;20182;-65
2022/12/20 19:42:14;;;;;;;1.67;1.67;;;10.70;99.90;11.00;100787.00;;;;5058887;28;20641;-64
2022/12/20 19:44:57;;;;;;;0.60;0.60;;;10.70;99.90;10.80;100725.00;;;;5044412;28;20718;-64
2022/12/20 19:47:40;;;;;;;0.70;0.70;;;10.70;99.90;11.00;100789.00;;;;5042361;28;20199;-64
2022/12/20 19:51:04;;;;;;;0.83;0.83;;;10.80;99.90;11.20;100733.00;;;;5042684;28;20186;-64
2022/12/20 19:53:43;;;;;;;0.70;0.70;;;10.90;99.90;11.70;100794.00;;;;5042284;28;20218;-64
2022/12/20 19:56:21;;;;;;;0.80;0.80;;;11.10;99.90;11.50;100794.00;;;;5058088;28;20734;-64
2022/12/20 19:58:51;;;;;;;0.80;0.80;;;11.10;99.90;11.60;100775.00;;;;5045020;28;20217;-64
2022/12/20 20:02:18;;;;;;;0.90;0.90;;;11.10;99.90;11.50;100807.00;;;;5043394;28;20202;-64
2022/12/20 20:05:08;;;;;;;1.03;1.03;;;11.10;99.90;11.10;100806.00;;;;5042841;28;20287;-64
2022/12/20 20:07:46;;;;;;;0.90;0.90;;;11.10;99.90;10.80;100808.00;;;;5041956;28;20836;-64
2022/12/20 20:10:38;;;;;;;1.67;1.67;;;10.80;99.90;10.80;100755.00;;;;5060045;28;20186;-64
2022/12/20 20:13:16;;;;;;;0.63;0.63;;;10.80;99.90;11.20;100794.00;;;;5042353;28;20231;-64
2022/12/20 20:16:09;;;;;;;0.70;0.70;;;10.90;99.90;11.30;100790.00;;;;5042961;28;20275;-64
2022/12/20 20:19:00;;;;;;;0.70;0.70;;;11.00;99.90;11.20;100798.00;;;;5044459;28;20261;-64
2022/12/20 20:25:12;;;;;;;0.80;0.80;;;10.90;99.90;11.40;100805.00;;;;5040197;28;20195;-64
2022/12/20 20:28:18;;;;;;;1.43;1.40;;;11.00;99.90;11.30;100804.00;;;;5042030;28;20209;-64
2022/12/20 20:31:23;;;;;;;0.60;0.60;;;11.10;99.90;10.60;100801.00;;;;5042134;28;20657;-64
2022/12/20 20:34:44;;;;;;;0.60;0.60;;;10.70;99.90;11.00;100818.00;;;;5025790;28;20275;-64